sensor_id;sensor_type;location;lat;lon;timestamp;pressure;altitude;pressure_sealevel;temperature;humidity
64644;BME280;51056;50.330;7.914;2022-10-16T00:03:03;100314.69;;;13.67;94.52
64644;BME280;51056;50.330;7.914;2022-10-16T00:06:07;100327.72;;;13.56;94.67
64644;BME280;51056;50.330;7.914;2022-10-16T00:09:15;100332.84;;;13.32;95.03
64644;BME280;51056;50.330;7.914;2022-10-16T00:12:19;100336.63;;;13.41;95.37
64644;BME280;51056;50.330;7.914;2022-10-16T00:15:23;100327.06;;;13.53;94.96
64644;BME280;51056;50.330;7.914;2022-10-16T00:18:28;100337.56;;;13.53;94.63
64644;BME280;51056;50.330;7.914;2022-10-16T00:21:33;100323.19;;;13.45;95.11
64644;BME280;51056;50.330;7.914;2022-10-16T00:24:56;100334.44;;;13.47;95.09
64644;BME280;51056;50.330;7.914;2022-10-16T00:28:00;100340.31;;;13.51;94.82
64644;BME280;51056;50.330;7.914;2022-10-16T00:31:06;100333.41;;;13.63;94.25
64644;BME280;51056;50.330;7.914;2022-10-16T00:34:10;100327.94;;;13.66;93.81
64644;BME280;51056;50.330;7.914;2022-10-16T00:37:13;100340.13;;;13.54;94.83
64644;BME280;51056;50.330;7.914;2022-10-16T00:40:17;100339.91;;;13.44;95.55
64644;BME280;51056;50.330;7.914;2022-10-16T00:43:55;100331.25;;;13.30;96.41
64644;BME280;51056;50.330;7.914;2022-10-16T00:46:59;100339.25;;;13.28;96.79
64644;BME280;51056;50.330;7.914;2022-10-16T00:50:13;100350.91;;;13.37;96.43
64644;BME280;51056;50.330;7.914;2022-10-16T00:53:19;100352.63;;;13.23;97.67
64644;BME280;51056;50.330;7.914;2022-10-16T00:56:23;100354.38;;;13.37;96.48
64644;BME280;51056;50.330;7.914;2022-10-16T00:59:32;100365.53;;;13.41;95.73
64644;BME280;51056;50.330;7.914;2022-10-16T01:02:36;100374.34;;;13.53;95.03
64644;BME280;51056;50.330;7.914;2022-10-16T01:05:48;100378.97;;;13.49;94.84
64644;BME280;51056;50.330;7.914;2022-10-16T01:09:22;100372.25;;;13.45;95.56
64644;BME280;51056;50.330;7.914;2022-10-16T01:12:40;100366.25;;;13.43;95.57
64644;BME280;51056;50.330;7.914;2022-10-16T01:19:16;100353.63;;;13.35;95.83
64644;BME280;51056;50.330;7.914;2022-10-16T01:22:25;100359.31;;;13.42;95.18
64644;BME280;51056;50.330;7.914;2022-10-16T01:29:26;100362.97;;;13.26;94.82
64644;BME280;51056;50.330;7.914;2022-10-16T01:32:41;100351.53;;;13.28;95.87
64644;BME280;51056;50.330;7.914;2022-10-16T01:35:48;100366.88;;;13.34;95.56
64644;BME280;51056;50.330;7.914;2022-10-16T01:38:56;100374.28;;;13.27;95.46
64644;BME280;51056;50.330;7.914;2022-10-16T01:42:24;100365.22;;;13.18;96.26
64644;BME280;51056;50.330;7.914;2022-10-16T01:45:32;100369.03;;;13.27;95.63
64644;BME280;51056;50.330;7.914;2022-10-16T01:48:36;100369.06;;;13.40;94.56
64644;BME280;51056;50.330;7.914;2022-10-16T01:51:43;100366.56;;;13.38;94.66
64644;BME280;51056;50.330;7.914;2022-10-16T01:54:52;100370.16;;;13.37;94.87
64644;BME280;51056;50.330;7.914;2022-10-16T01:57:58;100357.72;;;13.39;94.40
64644;BME280;51056;50.330;7.914;2022-10-16T02:01:04;100353.03;;;13.44;93.79
64644;BME280;51056;50.330;7.914;2022-10-16T02:04:27;100368.88;;;13.43;93.97
64644;BME280;51056;50.330;7.914;2022-10-16T02:07:32;100384.44;;;13.46;93.83
64644;BME280;51056;50.330;7.914;2022-10-16T02:10:37;100384.19;;;13.36;94.32
64644;BME280;51056;50.330;7.914;2022-10-16T02:13:47;100385.09;;;13.22;95.44
64644;BME280;51056;50.330;7.914;2022-10-16T02:16:53;100380.41;;;13.28;95.59
64644;BME280;51056;50.330;7.914;2022-10-16T02:19:57;100376.03;;;13.41;95.02
64644;BME280;51056;50.330;7.914;2022-10-16T02:23:03;100374.78;;;13.46;94.24
64644;BME280;51056;50.330;7.914;2022-10-16T02:26:09;100382.16;;;13.54;93.48
64644;BME280;51056;50.330;7.914;2022-10-16T02:29:17;100389.28;;;13.52;93.58
64644;BME280;51056;50.330;7.914;2022-10-16T02:32:28;100393.59;;;13.53;93.71
64644;BME280;51056;50.330;7.914;2022-10-16T02:35:34;100399.53;;;13.30;95.21
64644;BME280;51056;50.330;7.914;2022-10-16T02:38:40;100416.97;;;13.31;96.20
64644;BME280;51056;50.330;7.914;2022-10-16T02:41:47;100425.25;;;13.24;96.78
64644;BME280;51056;50.330;7.914;2022-10-16T02:44:51;100409.66;;;13.21;97.13
64644;BME280;51056;50.330;7.914;2022-10-16T02:47:54;100418.88;;;13.41;95.98
64644;BME280;51056;50.330;7.914;2022-10-16T02:50:57;100406.38;;;13.45;95.29
64644;BME280;51056;50.330;7.914;2022-10-16T02:54:02;100410.78;;;13.32;96.68
64644;BME280;51056;50.330;7.914;2022-10-16T02:57:06;100410.78;;;13.32;96.52
64644;BME280;51056;50.330;7.914;2022-10-16T03:00:10;100397.25;;;13.38;96.56
64644;BME280;51056;50.330;7.914;2022-10-16T03:03:14;100397.97;;;13.40;95.94
64644;BME280;51056;50.330;7.914;2022-10-16T03:06:18;100401.50;;;13.53;94.99
64644;BME280;51056;50.330;7.914;2022-10-16T03:09:26;100413.56;;;13.56;94.03
64644;BME280;51056;50.330;7.914;2022-10-16T03:12:30;100411.03;;;13.54;94.13
64644;BME280;51056;50.330;7.914;2022-10-16T03:15:34;100376.91;;;13.54;94.33
64644;BME280;51056;50.330;7.914;2022-10-16T03:18:37;100360.38;;;13.52;94.06
64644;BME280;51056;50.330;7.914;2022-10-16T03:21:40;100361.88;;;13.56;93.88
64644;BME280;51056;50.330;7.914;2022-10-16T03:24:44;100345.22;;;13.43;94.34
64644;BME280;51056;50.330;7.914;2022-10-16T03:27:48;100373.44;;;13.54;93.90
64644;BME280;51056;50.330;7.914;2022-10-16T03:30:52;100392.63;;;13.41;94.46
64644;BME280;51056;50.330;7.914;2022-10-16T03:33:56;100401.97;;;13.18;95.81
64644;BME280;51056;50.330;7.914;2022-10-16T03:37:00;100409.81;;;13.33;95.81
64644;BME280;51056;50.330;7.914;2022-10-16T03:40:05;100421.41;;;13.43;95.31
64644;BME280;51056;50.330;7.914;2022-10-16T03:43:08;100425.53;;;13.47;95.35
64644;BME280;51056;50.330;7.914;2022-10-16T03:46:12;100427.31;;;13.46;95.16
64644;BME280;51056;50.330;7.914;2022-10-16T03:49:15;100433.00;;;13.53;94.60
64644;BME280;51056;50.330;7.914;2022-10-16T03:52:19;100431.31;;;13.52;94.58
64644;BME280;51056;50.330;7.914;2022-10-16T03:55:22;100426.81;;;13.54;94.39
64644;BME280;51056;50.330;7.914;2022-10-16T03:58:26;100429.00;;;13.47;94.34
64644;BME280;51056;50.330;7.914;2022-10-16T04:01:30;100431.38;;;13.38;94.53
64644;BME280;51056;50.330;7.914;2022-10-16T04:04:33;100446.06;;;13.28;95.51
64644;BME280;51056;50.330;7.914;2022-10-16T04:07:37;100452.41;;;13.23;96.27
64644;BME280;51056;50.330;7.914;2022-10-16T04:10:47;100451.50;;;13.24;95.92
64644;BME280;51056;50.330;7.914;2022-10-16T04:13:51;100448.28;;;13.34;95.74
64644;BME280;51056;50.330;7.914;2022-10-16T04:16:56;100442.84;;;13.49;94.56
64644;BME280;51056;50.330;7.914;2022-10-16T04:20:01;100454.22;;;13.50;94.02
64644;BME280;51056;50.330;7.914;2022-10-16T04:23:04;100453.03;;;13.41;94.40
64644;BME280;51056;50.330;7.914;2022-10-16T04:26:08;100453.66;;;13.45;94.16
64644;BME280;51056;50.330;7.914;2022-10-16T04:29:13;100457.44;;;13.41;94.55
64644;BME280;51056;50.330;7.914;2022-10-16T04:32:17;100452.31;;;13.52;93.91
64644;BME280;51056;50.330;7.914;2022-10-16T04:35:21;100465.13;;;13.44;94.18
64644;BME280;51056;50.330;7.914;2022-10-16T04:38:25;100469.13;;;13.49;94.15
64644;BME280;51056;50.330;7.914;2022-10-16T04:41:32;100471.09;;;13.46;94.21
64644;BME280;51056;50.330;7.914;2022-10-16T04:44:36;100465.56;;;13.51;94.52
64644;BME280;51056;50.330;7.914;2022-10-16T04:47:40;100464.41;;;13.55;94.01
64644;BME280;51056;50.330;7.914;2022-10-16T04:50:44;100458.41;;;13.53;94.04
64644;BME280;51056;50.330;7.914;2022-10-16T04:53:48;100459.25;;;13.40;94.97
64644;BME280;51056;50.330;7.914;2022-10-16T04:56:51;100446.00;;;13.42;95.09
64644;BME280;51056;50.330;7.914;2022-10-16T04:59:56;100464.94;;;13.47;94.61
64644;BME280;51056;50.330;7.914;2022-10-16T05:03:00;100465.13;;;13.44;94.73
64644;BME280;51056;50.330;7.914;2022-10-16T05:06:07;100468.03;;;13.39;95.46
64644;BME280;51056;50.330;7.914;2022-10-16T05:09:12;100471.41;;;13.41;94.87
64644;BME280;51056;50.330;7.914;2022-10-16T05:12:15;100461.75;;;13.42;94.72
64644;BME280;51056;50.330;7.914;2022-10-16T05:15:20;100468.88;;;13.40;95.00
64644;BME280;51056;50.330;7.914;2022-10-16T05:18:24;100476.34;;;13.46;94.64
64644;BME280;51056;50.330;7.914;2022-10-16T05:21:27;100485.59;;;13.39;94.79
64644;BME280;51056;50.330;7.914;2022-10-16T05:24:31;100487.00;;;13.30;96.03
64644;BME280;51056;50.330;7.914;2022-10-16T05:27:35;100489.25;;;13.36;95.61
64644;BME280;51056;50.330;7.914;2022-10-16T05:30:39;100478.97;;;13.46;94.63
64644;BME280;51056;50.330;7.914;2022-10-16T05:33:43;100478.78;;;13.49;94.00
64644;BME280;51056;50.330;7.914;2022-10-16T05:36:49;100476.28;;;13.47;93.70
64644;BME280;51056;50.330;7.914;2022-10-16T05:39:54;100469.75;;;13.40;94.72
64644;BME280;51056;50.330;7.914;2022-10-16T05:42:58;100476.22;;;13.35;95.00
64644;BME280;51056;50.330;7.914;2022-10-16T05:46:04;100464.88;;;13.34;95.33
64644;BME280;51056;50.330;7.914;2022-10-16T05:49:08;100474.03;;;13.41;94.41
64644;BME280;51056;50.330;7.914;2022-10-16T05:52:11;100482.44;;;13.34;94.57
64644;BME280;51056;50.330;7.914;2022-10-16T05:55:14;100492.09;;;13.19;95.68
64644;BME280;51056;50.330;7.914;2022-10-16T05:58:23;100505.91;;;13.08;97.15
64644;BME280;51056;50.330;7.914;2022-10-16T06:01:29;100505.28;;;13.17;97.11
64644;BME280;51056;50.330;7.914;2022-10-16T06:04:34;100515.59;;;13.20;96.61
64644;BME280;51056;50.330;7.914;2022-10-16T06:07:39;100509.72;;;13.31;95.90
64644;BME280;51056;50.330;7.914;2022-10-16T06:10:43;100510.38;;;13.35;95.64
64644;BME280;51056;50.330;7.914;2022-10-16T06:13:51;100505.66;;;13.40;95.46
64644;BME280;51056;50.330;7.914;2022-10-16T06:16:55;100507.19;;;13.30;95.95
64644;BME280;51056;50.330;7.914;2022-10-16T06:19:59;100501.00;;;13.16;97.36
64644;BME280;51056;50.330;7.914;2022-10-16T06:23:03;100519.94;;;13.07;98.03
64644;BME280;51056;50.330;7.914;2022-10-16T06:26:15;100526.03;;;13.08;98.20
64644;BME280;51056;50.330;7.914;2022-10-16T06:29:19;100525.28;;;13.20;97.79
64644;BME280;51056;50.330;7.914;2022-10-16T06:32:22;100535.03;;;13.18;97.92
64644;BME280;51056;50.330;7.914;2022-10-16T06:35:30;100535.34;;;13.28;97.56
64644;BME280;51056;50.330;7.914;2022-10-16T06:38:35;100525.16;;;13.36;96.78
64644;BME280;51056;50.330;7.914;2022-10-16T06:41:39;100528.56;;;13.38;96.39
64644;BME280;51056;50.330;7.914;2022-10-16T06:45:04;100529.75;;;13.46;95.68
64644;BME280;51056;50.330;7.914;2022-10-16T06:48:08;100533.66;;;13.54;94.96
64644;BME280;51056;50.330;7.914;2022-10-16T06:54:17;100539.56;;;13.57;94.61
64644;BME280;51056;50.330;7.914;2022-10-16T06:57:20;100558.16;;;13.54;94.57
64644;BME280;51056;50.330;7.914;2022-10-16T07:00:24;100564.34;;;13.53;94.68
64644;BME280;51056;50.330;7.914;2022-10-16T07:03:27;100579.00;;;13.43;95.69
64644;BME280;51056;50.330;7.914;2022-10-16T07:06:33;100584.75;;;13.35;96.95
64644;BME280;51056;50.330;7.914;2022-10-16T07:09:37;100597.03;;;13.35;97.43
64644;BME280;51056;50.330;7.914;2022-10-16T07:12:40;100598.13;;;13.45;97.15
64644;BME280;51056;50.330;7.914;2022-10-16T07:15:43;100610.50;;;13.57;96.26
64644;BME280;51056;50.330;7.914;2022-10-16T07:18:47;100609.53;;;13.58;96.64
64644;BME280;51056;50.330;7.914;2022-10-16T07:21:52;100617.81;;;13.66;96.13
64644;BME280;51056;50.330;7.914;2022-10-16T07:24:56;100622.41;;;13.63;96.06
64644;BME280;51056;50.330;7.914;2022-10-16T07:28:00;100617.25;;;13.61;96.09
64644;BME280;51056;50.330;7.914;2022-10-16T07:31:09;100614.59;;;13.61;96.33
64644;BME280;51056;50.330;7.914;2022-10-16T07:34:15;100618.28;;;13.59;96.89
64644;BME280;51056;50.330;7.914;2022-10-16T07:37:19;100632.84;;;13.50;97.87
64644;BME280;51056;50.330;7.914;2022-10-16T07:40:24;100645.22;;;13.48;98.78
64644;BME280;51056;50.330;7.914;2022-10-16T07:43:31;100643.31;;;13.64;98.21
64644;BME280;51056;50.330;7.914;2022-10-16T07:46:35;100654.41;;;13.69;97.69
64644;BME280;51056;50.330;7.914;2022-10-16T07:49:39;100658.13;;;13.80;97.78
64644;BME280;51056;50.330;7.914;2022-10-16T07:52:44;100656.50;;;13.91;97.06
64644;BME280;51056;50.330;7.914;2022-10-16T07:55:48;100665.75;;;13.97;96.74
64644;BME280;51056;50.330;7.914;2022-10-16T07:58:52;100670.53;;;14.05;96.44
64644;BME280;51056;50.330;7.914;2022-10-16T08:01:57;100664.38;;;13.91;97.02
64644;BME280;51056;50.330;7.914;2022-10-16T08:05:01;100664.84;;;13.98;97.36
64644;BME280;51056;50.330;7.914;2022-10-16T08:08:05;100675.56;;;13.95;97.26
64644;BME280;51056;50.330;7.914;2022-10-16T08:11:09;100664.38;;;13.91;97.70
64644;BME280;51056;50.330;7.914;2022-10-16T08:14:15;100679.47;;;13.88;97.76
64644;BME280;51056;50.330;7.914;2022-10-16T08:17:18;100671.06;;;13.83;98.51
64644;BME280;51056;50.330;7.914;2022-10-16T08:20:21;100675.94;;;13.89;99.14
64644;BME280;51056;50.330;7.914;2022-10-16T08:23:26;100679.09;;;13.94;99.81
64644;BME280;51056;50.330;7.914;2022-10-16T08:26:30;100676.25;;;14.11;98.73
64644;BME280;51056;50.330;7.914;2022-10-16T08:29:33;100670.78;;;14.14;98.03
64644;BME280;51056;50.330;7.914;2022-10-16T08:32:36;100689.66;;;14.07;97.94
64644;BME280;51056;50.330;7.914;2022-10-16T08:35:40;100698.44;;;14.07;98.73
64644;BME280;51056;50.330;7.914;2022-10-16T08:38:48;100701.25;;;14.04;98.88
64644;BME280;51056;50.330;7.914;2022-10-16T08:42:11;100696.88;;;14.17;100.00
64644;BME280;51056;50.330;7.914;2022-10-16T08:45:42;100695.91;;;14.33;100.00
64644;BME280;51056;50.330;7.914;2022-10-16T08:48:52;100706.22;;;14.36;99.97
64644;BME280;51056;50.330;7.914;2022-10-16T08:51:56;100707.25;;;14.33;99.93
64644;BME280;51056;50.330;7.914;2022-10-16T08:55:01;100714.13;;;14.36;99.82
64644;BME280;51056;50.330;7.914;2022-10-16T08:58:15;100716.50;;;14.53;99.81
64644;BME280;51056;50.330;7.914;2022-10-16T09:01:21;100724.00;;;14.59;99.13
64644;BME280;51056;50.330;7.914;2022-10-16T09:14:29;100725.69;;;14.60;100.00
64644;BME280;51056;50.330;7.914;2022-10-16T09:21:16;100739.91;;;14.71;99.97
64644;BME280;51056;50.330;7.914;2022-10-16T09:24:25;100733.44;;;14.89;99.44
64644;BME280;51056;50.330;7.914;2022-10-16T09:27:31;100746.81;;;14.99;98.80
64644;BME280;51056;50.330;7.914;2022-10-16T09:30:38;100752.50;;;15.05;98.51
64644;BME280;51056;50.330;7.914;2022-10-16T09:33:45;100752.09;;;15.11;99.94
64644;BME280;51056;50.330;7.914;2022-10-16T09:36:51;100756.00;;;15.19;98.42
64644;BME280;51056;50.330;7.914;2022-10-16T09:39:56;100763.91;;;15.19;98.61
64644;BME280;51056;50.330;7.914;2022-10-16T09:43:26;100760.75;;;15.26;98.50
64644;BME280;51056;50.330;7.914;2022-10-16T09:46:35;100757.28;;;15.39;98.33
64644;BME280;51056;50.330;7.914;2022-10-16T09:49:54;100761.28;;;15.44;99.80
64644;BME280;51056;50.330;7.914;2022-10-16T09:53:13;100754.66;;;15.64;97.29
64644;BME280;51056;50.330;7.914;2022-10-16T09:59:31;100756.97;;;15.81;97.59
64644;BME280;51056;50.330;7.914;2022-10-16T10:02:36;100758.41;;;15.98;98.28
64644;BME280;51056;50.330;7.914;2022-10-16T10:05:48;100764.09;;;16.05;98.31
64644;BME280;51056;50.330;7.914;2022-10-16T10:08:55;100764.94;;;16.06;97.62
64644;BME280;51056;50.330;7.914;2022-10-16T10:12:01;100761.13;;;16.10;95.21
64644;BME280;51056;50.330;7.914;2022-10-16T10:15:14;100763.09;;;16.19;93.08
64644;BME280;51056;50.330;7.914;2022-10-16T10:18:24;100765.91;;;16.28;89.96
64644;BME280;51056;50.330;7.914;2022-10-16T10:21:32;100757.47;;;16.23;86.77
64644;BME280;51056;50.330;7.914;2022-10-16T10:24:37;100756.94;;;16.31;86.93
64644;BME280;51056;50.330;7.914;2022-10-16T10:31:21;100746.31;;;16.20;86.77
64644;BME280;51056;50.330;7.914;2022-10-16T10:34:39;100744.69;;;16.30;87.57
64644;BME280;51056;50.330;7.914;2022-10-16T10:38:06;100746.22;;;16.45;88.34
64644;BME280;51056;50.330;7.914;2022-10-16T10:41:30;100753.66;;;16.40;86.37
64644;BME280;51056;50.330;7.914;2022-10-16T10:51:26;100746.72;;;16.50;88.25
64644;BME280;51056;50.330;7.914;2022-10-16T10:54:52;100744.25;;;16.60;85.38
64644;BME280;51056;50.330;7.914;2022-10-16T10:58:20;100749.03;;;16.79;85.11
64644;BME280;51056;50.330;7.914;2022-10-16T11:02:50;100737.06;;;16.86;84.94
64644;BME280;51056;50.330;7.914;2022-10-16T11:05:36;100739.34;;;16.91;85.22
64644;BME280;51056;50.330;7.914;2022-10-16T11:08:51;100740.22;;;17.03;86.39
64644;BME280;51056;50.330;7.914;2022-10-16T11:12:05;100738.41;;;17.03;86.68
64644;BME280;51056;50.330;7.914;2022-10-16T11:15:37;100727.31;;;16.87;85.85
64644;BME280;51056;50.330;7.914;2022-10-16T11:18:52;100724.53;;;16.77;87.04
64644;BME280;51056;50.330;7.914;2022-10-16T11:22:11;100732.28;;;16.91;90.42
64644;BME280;51056;50.330;7.914;2022-10-16T11:25:27;100732.75;;;16.96;87.52
64644;BME280;51056;50.330;7.914;2022-10-16T11:28:37;100746.72;;;17.10;85.31
64644;BME280;51056;50.330;7.914;2022-10-16T11:31:49;100746.03;;;17.30;84.07
64644;BME280;51056;50.330;7.914;2022-10-16T11:35:11;100746.78;;;17.43;82.42
64644;BME280;51056;50.330;7.914;2022-10-16T11:42:03;100752.53;;;17.26;81.39
64644;BME280;51056;50.330;7.914;2022-10-16T11:48:27;100759.13;;;17.20;81.64
64644;BME280;51056;50.330;7.914;2022-10-16T11:51:38;100751.28;;;17.08;82.09
64644;BME280;51056;50.330;7.914;2022-10-16T12:01:24;100741.34;;;17.67;80.07
64644;BME280;51056;50.330;7.914;2022-10-16T12:04:40;100738.03;;;17.77;80.64
64644;BME280;51056;50.330;7.914;2022-10-16T12:08:05;100738.38;;;17.72;79.49
64644;BME280;51056;50.330;7.914;2022-10-16T12:11:38;100734.78;;;17.84;79.81
64644;BME280;51056;50.330;7.914;2022-10-16T12:14:42;100733.56;;;17.88;79.17
64644;BME280;51056;50.330;7.914;2022-10-16T12:17:46;100739.06;;;18.08;78.07
64644;BME280;51056;50.330;7.914;2022-10-16T12:20:55;100741.75;;;17.97;78.90
64644;BME280;51056;50.330;7.914;2022-10-16T12:24:32;100742.88;;;18.26;76.95
64644;BME280;51056;50.330;7.914;2022-10-16T12:27:37;100733.97;;;18.27;76.92
64644;BME280;51056;50.330;7.914;2022-10-16T12:30:43;100743.47;;;18.30;76.74
64644;BME280;51056;50.330;7.914;2022-10-16T12:40:32;100746.59;;;18.67;76.65
64644;BME280;51056;50.330;7.914;2022-10-16T12:43:41;100745.66;;;18.25;77.15
64644;BME280;51056;50.330;7.914;2022-10-16T12:46:48;100760.69;;;18.24;77.61
64644;BME280;51056;50.330;7.914;2022-10-16T12:49:55;100754.63;;;18.45;78.77
64644;BME280;51056;50.330;7.914;2022-10-16T12:53:17;100767.44;;;18.17;80.45
64644;BME280;51056;50.330;7.914;2022-10-16T12:59:48;100763.63;;;18.10;80.04
64644;BME280;51056;50.330;7.914;2022-10-16T13:06:33;100750.78;;;18.38;78.21
64644;BME280;51056;50.330;7.914;2022-10-16T13:13:56;100745.06;;;18.53;78.06
64644;BME280;51056;50.330;7.914;2022-10-16T13:20:35;100741.81;;;18.61;77.24
64644;BME280;51056;50.330;7.914;2022-10-16T13:30:53;100758.16;;;18.77;75.86
64644;BME280;51056;50.330;7.914;2022-10-16T13:33:58;100753.00;;;18.65;76.07
64644;BME280;51056;50.330;7.914;2022-10-16T13:37:17;100762.41;;;18.57;76.85
64644;BME280;51056;50.330;7.914;2022-10-16T13:40:24;100770.53;;;18.45;77.02
64644;BME280;51056;50.330;7.914;2022-10-16T13:43:35;100753.22;;;18.29;80.19
64644;BME280;51056;50.330;7.914;2022-10-16T13:46:44;100758.69;;;18.17;81.61
64644;BME280;51056;50.330;7.914;2022-10-16T13:50:02;100762.28;;;18.16;80.85
64644;BME280;51056;50.330;7.914;2022-10-16T13:53:09;100755.63;;;18.32;79.32
64644;BME280;51056;50.330;7.914;2022-10-16T13:56:19;100763.91;;;18.39;80.42
64644;BME280;51056;50.330;7.914;2022-10-16T13:59:42;100766.47;;;18.29;81.46
64644;BME280;51056;50.330;7.914;2022-10-16T14:02:51;100760.25;;;18.19;81.91
64644;BME280;51056;50.330;7.914;2022-10-16T14:05:58;100756.63;;;18.20;82.15
64644;BME280;51056;50.330;7.914;2022-10-16T14:09:19;100756.13;;;18.15;83.02
64644;BME280;51056;50.330;7.914;2022-10-16T14:12:24;100763.13;;;18.16;83.83
64644;BME280;51056;50.330;7.914;2022-10-16T14:15:35;100754.72;;;18.11;82.87
64644;BME280;51056;50.330;7.914;2022-10-16T14:18:39;100752.69;;;18.03;84.34
64644;BME280;51056;50.330;7.914;2022-10-16T14:21:43;100744.66;;;17.94;84.74
64644;BME280;51056;50.330;7.914;2022-10-16T14:24:47;100757.16;;;17.92;87.00
64644;BME280;51056;50.330;7.914;2022-10-16T14:28:04;100755.94;;;17.96;87.13
64644;BME280;51056;50.330;7.914;2022-10-16T14:31:29;100752.44;;;18.06;86.24
64644;BME280;51056;50.330;7.914;2022-10-16T14:34:36;100748.19;;;18.15;87.30
64644;BME280;51056;50.330;7.914;2022-10-16T14:37:39;100755.88;;;18.29;87.74
64644;BME280;51056;50.330;7.914;2022-10-16T14:40:49;100753.69;;;18.34;86.53
64644;BME280;51056;50.330;7.914;2022-10-16T14:43:55;100756.31;;;18.34;89.20
64644;BME280;51056;50.330;7.914;2022-10-16T14:47:09;100749.50;;;18.32;89.28
64644;BME280;51056;50.330;7.914;2022-10-16T14:50:42;100758.19;;;18.23;90.17
64644;BME280;51056;50.330;7.914;2022-10-16T14:53:48;100767.22;;;18.20;89.22
64644;BME280;51056;50.330;7.914;2022-10-16T14:56:57;100759.59;;;18.27;88.68
64644;BME280;51056;50.330;7.914;2022-10-16T15:00:03;100764.50;;;18.43;89.13
64644;BME280;51056;50.330;7.914;2022-10-16T15:03:07;100776.75;;;18.44;89.91
64644;BME280;51056;50.330;7.914;2022-10-16T15:06:13;100774.50;;;18.39;89.14
64644;BME280;51056;50.330;7.914;2022-10-16T15:09:18;100774.16;;;18.32;89.12
64644;BME280;51056;50.330;7.914;2022-10-16T15:12:21;100777.66;;;18.22;90.71
64644;BME280;51056;50.330;7.914;2022-10-16T15:15:31;100782.84;;;18.12;91.24
64644;BME280;51056;50.330;7.914;2022-10-16T15:18:37;100778.31;;;18.03;92.44
64644;BME280;51056;50.330;7.914;2022-10-16T15:21:42;100781.19;;;18.00;93.92
64644;BME280;51056;50.330;7.914;2022-10-16T15:24:46;100784.81;;;17.87;94.39
64644;BME280;51056;50.330;7.914;2022-10-16T15:27:51;100782.34;;;17.73;96.41
64644;BME280;51056;50.330;7.914;2022-10-16T15:30:56;100785.00;;;17.62;96.75
64644;BME280;51056;50.330;7.914;2022-10-16T15:34:01;100785.72;;;17.64;97.22
64644;BME280;51056;50.330;7.914;2022-10-16T15:37:08;100787.66;;;17.62;97.69
64644;BME280;51056;50.330;7.914;2022-10-16T15:40:12;100779.22;;;17.57;97.90
64644;BME280;51056;50.330;7.914;2022-10-16T15:43:17;100789.34;;;17.52;97.87
64644;BME280;51056;50.330;7.914;2022-10-16T15:46:24;100791.59;;;17.34;98.98
64644;BME280;51056;50.330;7.914;2022-10-16T15:49:31;100790.13;;;17.30;98.66
64644;BME280;51056;50.330;7.914;2022-10-16T15:52:35;100778.59;;;17.31;98.30
64644;BME280;51056;50.330;7.914;2022-10-16T15:55:42;100791.34;;;17.37;98.84
64644;BME280;51056;50.330;7.914;2022-10-16T15:58:48;100784.75;;;17.42;98.17
64644;BME280;51056;50.330;7.914;2022-10-16T16:01:51;100785.00;;;17.39;98.32
64644;BME280;51056;50.330;7.914;2022-10-16T16:04:55;100787.97;;;17.35;98.58
64644;BME280;51056;50.330;7.914;2022-10-16T16:08:01;100773.28;;;17.19;98.56
64644;BME280;51056;50.330;7.914;2022-10-16T16:11:11;100781.34;;;17.18;99.20
64644;BME280;51056;50.330;7.914;2022-10-16T16:14:16;100771.38;;;17.22;99.66
64644;BME280;51056;50.330;7.914;2022-10-16T16:17:24;100768.38;;;17.26;99.29
64644;BME280;51056;50.330;7.914;2022-10-16T16:20:32;100775.34;;;17.27;98.54
64644;BME280;51056;50.330;7.914;2022-10-16T16:23:39;100780.13;;;17.11;99.40
64644;BME280;51056;50.330;7.914;2022-10-16T16:26:46;100788.38;;;17.06;100.00
64644;BME280;51056;50.330;7.914;2022-10-16T16:29:53;100782.25;;;17.06;99.35
64644;BME280;51056;50.330;7.914;2022-10-16T16:33:01;100796.88;;;16.99;99.83
64644;BME280;51056;50.330;7.914;2022-10-16T16:36:09;100794.72;;;17.04;100.00
64644;BME280;51056;50.330;7.914;2022-10-16T16:39:17;100784.16;;;17.04;99.60
64644;BME280;51056;50.330;7.914;2022-10-16T16:42:27;100786.09;;;17.02;99.74
64644;BME280;51056;50.330;7.914;2022-10-16T16:45:37;100795.81;;;17.01;99.40
64644;BME280;51056;50.330;7.914;2022-10-16T16:48:46;100803.13;;;16.98;99.55
64644;BME280;51056;50.330;7.914;2022-10-16T16:51:56;100819.75;;;16.87;100.00
64644;BME280;51056;50.330;7.914;2022-10-16T16:55:03;100825.28;;;16.84;100.00
64644;BME280;51056;50.330;7.914;2022-10-16T18:01:39;100861.25;;;15.98;98.57
64644;BME280;51056;50.330;7.914;2022-10-16T18:04:49;100865.41;;;15.90;98.25
64644;BME280;51056;50.330;7.914;2022-10-16T18:07:54;100876.56;;;15.93;98.39
64644;BME280;51056;50.330;7.914;2022-10-16T18:11:00;100872.97;;;15.81;99.28
64644;BME280;51056;50.330;7.914;2022-10-16T18:14:05;100882.91;;;15.78;99.25
64644;BME280;51056;50.330;7.914;2022-10-16T18:17:12;100885.31;;;15.81;98.75
64644;BME280;51056;50.330;7.914;2022-10-16T18:20:20;100889.84;;;15.79;98.00
64644;BME280;51056;50.330;7.914;2022-10-16T18:23:29;100887.41;;;15.76;98.48
64644;BME280;51056;50.330;7.914;2022-10-16T18:26:37;100888.38;;;15.75;97.79
64644;BME280;51056;50.330;7.914;2022-10-16T18:29:46;100878.66;;;15.75;97.18
64644;BME280;51056;50.330;7.914;2022-10-16T18:32:54;100888.16;;;15.78;96.15
64644;BME280;51056;50.330;7.914;2022-10-16T18:36:07;100891.84;;;15.75;96.10
64644;BME280;51056;50.330;7.914;2022-10-16T19:57:28;100943.94;;;15.32;100.00
64644;BME280;51056;50.330;7.914;2022-10-16T20:00:40;100944.84;;;15.31;100.00
64644;BME280;51056;50.330;7.914;2022-10-16T20:03:46;100947.16;;;15.23;100.00
64644;BME280;51056;50.330;7.914;2022-10-16T20:06:51;100952.31;;;15.24;100.00